createdAt,value
2019-03-19T00:00:23.478Z,100542.17
2019-03-19T00:02:52.505Z,100540.38
2019-03-19T00:05:21.522Z,100543.97
2019-03-19T00:07:50.550Z,100544.02
2019-03-19T00:10:19.584Z,100536.09
2019-03-19T00:12:48.609Z,100536.14
2019-03-19T00:15:17.641Z,100532.13
2019-03-19T00:17:46.660Z,100532.55
2019-03-19T00:20:16.716Z,100537.42
2019-03-19T00:22:48.593Z,100541.84
2019-03-19T00:25:17.614Z,100544.38
2019-03-19T00:27:46.642Z,100545.59
2019-03-19T00:30:17.475Z,100545.53
2019-03-19T00:32:46.501Z,100534.76
2019-03-19T00:35:15.552Z,100541.80
2019-03-19T00:37:44.574Z,100545.72
2019-03-19T00:40:15.971Z,100544.75
2019-03-19T00:42:45.025Z,100549.63
2019-03-19T00:45:14.792Z,100541.52
2019-03-19T00:47:43.823Z,100541.47
2019-03-19T00:50:14.462Z,100550.23
2019-03-19T00:52:43.501Z,100544.47
2019-03-19T00:55:12.810Z,100544.42
2019-03-19T00:57:41.856Z,100554.45
2019-03-19T01:00:21.131Z,100554.38
2019-03-19T01:02:50.161Z,100552.58
2019-03-19T01:05:19.256Z,100547.64
2019-03-19T01:07:48.286Z,100554.73
2019-03-19T01:10:17.869Z,100559.58
2019-03-19T01:12:47.036Z,100556.45
2019-03-19T01:15:16.232Z,100561.80
2019-03-19T01:17:45.255Z,100567.97
2019-03-19T01:20:15.856Z,100570.17
2019-03-19T01:22:44.956Z,100577.73
2019-03-19T01:25:14.079Z,100570.64
2019-03-19T01:27:43.087Z,100571.97
2019-03-19T01:30:14.626Z,100573.31
2019-03-19T01:32:43.657Z,100574.29
2019-03-19T01:35:12.743Z,100579.31
2019-03-19T01:37:41.800Z,100578.11
2019-03-19T01:40:13.976Z,100578.16
2019-03-19T01:42:43.005Z,100578.63
2019-03-19T01:45:13.248Z,100574.61
2019-03-19T01:47:42.279Z,100578.25
2019-03-19T01:50:16.027Z,100578.77
2019-03-19T01:52:45.047Z,100580.56
2019-03-19T01:55:15.981Z,100583.65
2019-03-19T01:57:45.009Z,100581.44
2019-03-19T02:00:19.173Z,100586.84
2019-03-19T02:02:48.201Z,100590.05
2019-03-19T02:05:17.392Z,100596.80
2019-03-19T02:07:46.431Z,100603.89
2019-03-19T02:10:15.768Z,100605.77
2019-03-19T02:12:44.792Z,100611.95
2019-03-19T02:15:18.119Z,100604.43
2019-03-19T02:19:00.024Z,100607.48
2019-03-19T02:21:29.329Z,100618.18
2019-03-19T02:23:58.632Z,100615.59
2019-03-19T02:26:27.984Z,100626.66
2019-03-19T02:28:57.284Z,100625.41
2019-03-19T02:31:26.594Z,100627.67
2019-03-19T02:33:55.951Z,100631.27
2019-03-19T02:36:25.267Z,100640.16
2019-03-19T02:38:54.572Z,100636.70
2019-03-19T02:41:23.883Z,100643.76
2019-03-19T02:43:52.909Z,100642.91
2019-03-19T02:46:21.948Z,100646.43
2019-03-19T02:48:50.972Z,100647.72
2019-03-19T02:51:20.006Z,100646.38
2019-03-19T02:53:49.029Z,100659.28
2019-03-19T02:56:31.771Z,100659.34
2019-03-19T02:58:48.806Z,100662.88
2019-03-19T03:01:17.838Z,100669.52
2019-03-19T03:03:46.862Z,100674.78
2019-03-19T03:06:15.876Z,100673.34
2019-03-19T03:08:44.902Z,100681.83
2019-03-19T03:11:13.942Z,100686.58
2019-03-19T03:13:42.956Z,100684.42
2019-03-19T03:16:11.977Z,100684.50
2019-03-19T03:18:40.999Z,100680.91
2019-03-19T03:21:10.146Z,100694.19
2019-03-19T03:23:39.224Z,100693.31
2019-03-19T03:26:08.244Z,100692.44
2019-03-19T03:28:37.270Z,100694.28
2019-03-19T03:31:06.349Z,100692.86
2019-03-19T03:33:35.402Z,100700.41
2019-03-19T03:36:04.428Z,100704.97
2019-03-19T03:38:33.457Z,100703.27
2019-03-19T03:41:02.488Z,100706.86
2019-03-19T03:43:31.523Z,100711.87
2019-03-19T03:46:00.545Z,100712.47
2019-03-19T03:48:29.578Z,100715.60
2019-03-19T03:50:58.607Z,100720.61
2019-03-19T03:53:27.643Z,100719.20
2019-03-19T03:55:56.678Z,100727.22
2019-03-19T03:58:25.691Z,100733.11
2019-03-19T04:00:54.744Z,100731.77
2019-03-19T04:03:23.775Z,100731.35
2019-03-19T04:05:52.795Z,100732.81
2019-03-19T04:08:22.001Z,100735.08
2019-03-19T04:10:51.029Z,100736.00
2019-03-19T04:13:20.051Z,100732.11
2019-03-19T04:15:51.696Z,100738.37
2019-03-19T04:18:19.891Z,100737.50
2019-03-19T04:20:48.928Z,100736.25
2019-03-19T04:23:17.945Z,100748.32
2019-03-19T04:25:46.982Z,100753.20
2019-03-19T04:28:16.006Z,100748.91
2019-03-19T04:30:45.033Z,100755.59
2019-03-19T04:33:14.061Z,100757.94
2019-03-19T04:35:43.084Z,100769.55
2019-03-19T04:38:12.110Z,100767.83
2019-03-19T04:40:41.136Z,100768.75
2019-03-19T04:43:10.184Z,100771.83
2019-03-19T04:45:39.183Z,100778.02
2019-03-19T04:48:08.222Z,100784.70
2019-03-19T04:50:38.204Z,100787.86
2019-03-19T04:53:07.238Z,100792.72
2019-03-19T04:55:36.263Z,100796.27
2019-03-19T04:58:05.350Z,100796.80
2019-03-19T05:00:34.446Z,100809.74
2019-03-19T05:03:05.824Z,100810.58
2019-03-19T05:05:34.849Z,100813.34
2019-03-19T05:08:03.871Z,100818.17
2019-03-19T05:10:32.934Z,100818.17
2019-03-19T05:13:01.956Z,100826.31
2019-03-19T05:15:30.980Z,100821.35
2019-03-19T05:18:00.005Z,100827.53
2019-03-19T05:20:29.028Z,100826.95
2019-03-19T05:22:58.060Z,100838.43
2019-03-19T05:25:27.094Z,100838.31
2019-03-19T05:27:56.603Z,100841.70
2019-03-19T05:30:25.622Z,100847.30
2019-03-19T05:32:54.657Z,100843.50
2019-03-19T05:35:23.675Z,100841.95
2019-03-19T05:37:52.706Z,100839.33
2019-03-19T05:40:21.735Z,100852.19
2019-03-19T05:42:50.760Z,100858.62
2019-03-19T05:45:19.809Z,100862.89
2019-03-19T05:47:48.818Z,100866.19
2019-03-19T05:50:23.105Z,100867.72
2019-03-19T05:52:52.148Z,100868.34
2019-03-19T05:55:21.168Z,100871.13
2019-03-19T05:57:50.710Z,100869.95
2019-03-19T06:00:21.937Z,100868.39
2019-03-19T06:02:51.036Z,100874.69
2019-03-19T06:05:21.244Z,100871.70
2019-03-19T06:07:50.663Z,100872.25
2019-03-19T06:10:19.692Z,100877.66
2019-03-19T06:12:48.717Z,100886.16
2019-03-19T06:15:17.950Z,100883.11
2019-03-19T06:17:46.976Z,100889.81
2019-03-19T06:20:21.270Z,100883.47
2019-03-19T06:22:51.258Z,100884.42
2019-03-19T06:25:20.281Z,100884.50
2019-03-19T06:27:59.580Z,100887.72
2019-03-19T06:30:22.939Z,100887.23
2019-03-19T06:32:51.988Z,100889.06
2019-03-19T06:35:21.015Z,100888.74
2019-03-19T06:37:50.035Z,100887.15
2019-03-19T06:40:23.611Z,100892.27
2019-03-19T06:42:52.643Z,100904.23
2019-03-19T06:45:23.280Z,100896.83
2019-03-19T06:47:52.578Z,100909.51
2019-03-19T06:50:22.239Z,100913.33
2019-03-19T06:52:51.267Z,100917.41
2019-03-19T06:55:20.990Z,100917.78
2019-03-19T06:57:50.014Z,100908.84
2019-03-19T07:00:24.210Z,100931.17
2019-03-19T07:02:53.401Z,100925.99
2019-03-19T07:05:22.956Z,100924.51
2019-03-19T07:07:52.062Z,100940.52
2019-03-19T07:10:22.187Z,100944.77
2019-03-19T07:12:51.290Z,100946.85
2019-03-19T07:15:28.981Z,100951.73
2019-03-19T07:17:57.292Z,100958.83
2019-03-19T07:20:28.151Z,100965.63
2019-03-19T07:22:57.276Z,100967.41
2019-03-19T07:25:26.302Z,100964.36
2019-03-19T07:27:55.321Z,100975.78
2019-03-19T07:30:28.292Z,100973.32
2019-03-19T07:32:59.119Z,100972.81
2019-03-19T07:35:28.085Z,100984.89
2019-03-19T07:37:57.181Z,100991.03
2019-03-19T07:40:26.199Z,101002.30
2019-03-19T07:43:00.345Z,100999.28
2019-03-19T07:45:29.373Z,101002.42
2019-03-19T07:47:58.437Z,101007.23
2019-03-19T07:50:27.463Z,101008.97
2019-03-19T07:52:56.489Z,101003.91
2019-03-19T07:55:25.573Z,101024.52
2019-03-19T07:57:54.635Z,101022.03
2019-03-19T08:00:24.075Z,101026.25
2019-03-19T08:02:58.283Z,101028.18
2019-03-19T08:05:32.993Z,101048.62
2019-03-19T08:07:58.129Z,101041.83
2019-03-19T08:10:27.155Z,101055.30
2019-03-19T08:12:56.202Z,101053.70
2019-03-19T08:15:25.258Z,101060.77
2019-03-19T08:17:54.273Z,101074.17
2019-03-19T08:20:23.663Z,101071.16
2019-03-19T08:22:54.868Z,101067.44
2019-03-19T08:25:23.987Z,101072.55
2019-03-19T08:27:53.005Z,101071.47
2019-03-19T08:30:26.947Z,101077.10
2019-03-19T08:32:55.966Z,101081.70
2019-03-19T08:35:24.988Z,101082.27
2019-03-19T08:37:54.012Z,101088.25
2019-03-19T08:40:23.035Z,101083.53
2019-03-19T08:42:52.080Z,101085.63
2019-03-19T08:45:27.949Z,101086.23
2019-03-19T08:47:56.978Z,101083.66
2019-03-19T08:50:26.007Z,101095.42
2019-03-19T08:52:55.545Z,101097.31
2019-03-19T08:55:24.951Z,101106.30
2019-03-19T08:57:54.009Z,101106.20
2019-03-19T09:00:29.472Z,101106.66
2019-03-19T09:02:58.525Z,101102.09
2019-03-19T09:05:27.562Z,101109.09
2019-03-19T09:07:56.587Z,101108.22
2019-03-19T09:10:25.651Z,101110.89
2019-03-19T09:12:54.727Z,101118.05
2019-03-19T09:15:30.186Z,101121.17
2019-03-19T09:17:59.205Z,101124.89
2019-03-19T09:20:28.225Z,101122.80
2019-03-19T09:22:57.909Z,101133.58
2019-03-19T09:25:30.478Z,101136.28
2019-03-19T09:27:59.267Z,101136.70
2019-03-19T09:30:28.288Z,101142.02
